sensor_id;sensor_type;location;lat;lon;timestamp;temperature;humidity
45735;DHT22;31446;49.632;8.328;2024-02-14T05:18:43;7.00;99.90
45735;DHT22;31446;49.632;8.328;2024-02-14T05:33:50;6.80;99.90
45735;DHT22;31446;49.632;8.328;2024-02-14T05:48:57;6.80;99.90
45735;DHT22;31446;49.632;8.328;2024-02-14T06:04:04;7.10;99.90
45735;DHT22;31446;49.632;8.328;2024-02-14T06:19:12;7.40;99.90
45735;DHT22;31446;49.632;8.328;2024-02-14T06:34:18;7.40;99.90
45735;DHT22;31446;49.632;8.328;2024-02-14T06:49:25;7.70;99.90
45735;DHT22;31446;49.632;8.328;2024-02-14T07:04:32;7.80;99.90
45735;DHT22;31446;49.632;8.328;2024-02-14T07:19:38;8.00;99.90
45735;DHT22;31446;49.632;8.328;2024-02-14T07:34:48;8.40;99.90
45735;DHT22;31446;49.632;8.328;2024-02-14T07:49:54;8.40;99.90
45735;DHT22;31446;49.632;8.328;2024-02-14T08:05:01;8.50;99.90
45735;DHT22;31446;49.632;8.328;2024-02-14T08:20:09;8.60;99.90
45735;DHT22;31446;49.632;8.328;2024-02-14T08:35:15;8.70;99.90
45735;DHT22;31446;49.632;8.328;2024-02-14T08:50:22;9.00;99.90
45735;DHT22;31446;49.632;8.328;2024-02-14T09:05:29;8.90;99.90
45735;DHT22;31446;49.632;8.328;2024-02-14T09:20:36;9.10;99.90
45735;DHT22;31446;49.632;8.328;2024-02-14T09:35:44;9.70;99.90
45735;DHT22;31446;49.632;8.328;2024-02-14T09:50:53;9.80;99.90
45735;DHT22;31446;49.632;8.328;2024-02-14T10:06:00;10.00;99.90
45735;DHT22;31446;49.632;8.328;2024-02-14T10:21:14;10.10;99.90
45735;DHT22;31446;49.632;8.328;2024-02-14T10:36:22;10.30;99.90
45735;DHT22;31446;49.632;8.328;2024-02-14T10:51:31;10.50;99.90
45735;DHT22;31446;49.632;8.328;2024-02-14T11:06:47;10.80;99.90
45735;DHT22;31446;49.632;8.328;2024-02-14T11:21:53;10.90;99.90
45735;DHT22;31446;49.632;8.328;2024-02-14T11:37:01;11.50;99.90
45735;DHT22;31446;49.632;8.328;2024-02-14T11:52:09;11.70;99.90
45735;DHT22;31446;49.632;8.328;2024-02-14T12:07:17;11.60;99.90
45735;DHT22;31446;49.632;8.328;2024-02-14T12:22:33;11.70;99.90
45735;DHT22;31446;49.632;8.328;2024-02-14T12:37:40;12.10;99.90
45735;DHT22;31446;49.632;8.328;2024-02-14T12:52:46;12.30;99.90
45735;DHT22;31446;49.632;8.328;2024-02-14T13:07:53;12.00;99.90
45735;DHT22;31446;49.632;8.328;2024-02-14T13:22:59;11.80;99.90
45735;DHT22;31446;49.632;8.328;2024-02-14T13:38:07;12.20;99.90
45735;DHT22;31446;49.632;8.328;2024-02-14T13:53:13;12.10;99.90
45735;DHT22;31446;49.632;8.328;2024-02-14T14:08:20;12.20;99.90
45735;DHT22;31446;49.632;8.328;2024-02-14T14:23:27;12.10;99.90
45735;DHT22;31446;49.632;8.328;2024-02-14T14:38:33;12.30;99.90
45735;DHT22;31446;49.632;8.328;2024-02-14T14:53:39;12.00;99.90
45735;DHT22;31446;49.632;8.328;2024-02-14T15:08:45;11.90;99.90
45735;DHT22;31446;49.632;8.328;2024-02-14T15:23:51;11.70;99.90
45735;DHT22;31446;49.632;8.328;2024-02-14T15:38:58;11.60;99.90
45735;DHT22;31446;49.632;8.328;2024-02-14T15:54:04;11.60;99.90
45735;DHT22;31446;49.632;8.328;2024-02-14T16:09:10;11.50;99.90
45735;DHT22;31446;49.632;8.328;2024-02-14T16:24:16;11.40;99.90
45735;DHT22;31446;49.632;8.328;2024-02-14T16:39:23;11.40;99.90
45735;DHT22;31446;49.632;8.328;2024-02-14T16:54:29;11.20;99.90
45735;DHT22;31446;49.632;8.328;2024-02-14T17:09:35;11.20;99.90
45735;DHT22;31446;49.632;8.328;2024-02-14T17:24:42;11.20;99.90
45735;DHT22;31446;49.632;8.328;2024-02-14T17:39:50;11.20;99.90
45735;DHT22;31446;49.632;8.328;2024-02-14T17:54:57;11.20;99.90
45735;DHT22;31446;49.632;8.328;2024-02-14T18:10:05;11.30;99.90
45735;DHT22;31446;49.632;8.328;2024-02-14T18:25:12;11.30;99.90
45735;DHT22;31446;49.632;8.328;2024-02-14T18:40:19;11.40;99.90
45735;DHT22;31446;49.632;8.328;2024-02-14T18:55:25;11.30;99.90
45735;DHT22;31446;49.632;8.328;2024-02-14T19:10:31;11.30;99.90
45735;DHT22;31446;49.632;8.328;2024-02-14T19:25:38;11.40;99.90
45735;DHT22;31446;49.632;8.328;2024-02-14T19:40:44;11.40;99.90
45735;DHT22;31446;49.632;8.328;2024-02-14T19:55:50;11.30;99.90
45735;DHT22;31446;49.632;8.328;2024-02-14T20:10:57;11.30;99.90
45735;DHT22;31446;49.632;8.328;2024-02-14T20:26:05;11.20;99.90
45735;DHT22;31446;49.632;8.328;2024-02-14T20:41:13;11.20;99.90
45735;DHT22;31446;49.632;8.328;2024-02-14T20:56:21;11.10;99.90
45735;DHT22;31446;49.632;8.328;2024-02-14T21:11:27;11.10;99.90
45735;DHT22;31446;49.632;8.328;2024-02-14T21:26:34;11.10;99.90
45735;DHT22;31446;49.632;8.328;2024-02-14T21:41:41;11.10;99.90
45735;DHT22;31446;49.632;8.328;2024-02-14T21:56:49;11.10;99.90
45735;DHT22;31446;49.632;8.328;2024-02-14T22:11:56;11.10;99.90
45735;DHT22;31446;49.632;8.328;2024-02-14T22:27:03;11.00;99.90
45735;DHT22;31446;49.632;8.328;2024-02-14T22:42:10;11.00;99.90
45735;DHT22;31446;49.632;8.328;2024-02-14T22:57:19;11.00;99.90
45735;DHT22;31446;49.632;8.328;2024-02-14T23:12:25;10.90;99.90
45735;DHT22;31446;49.632;8.328;2024-02-14T23:27:33;10.80;99.90
45735;DHT22;31446;49.632;8.328;2024-02-14T23:42:40;10.70;99.90
45735;DHT22;31446;49.632;8.328;2024-02-14T23:57:48;10.60;99.90
